77NY weather

CLOSED Pendleton Airpark
Pendleton, New York, United States

Public forecast

Using degrees Fahrenheit for public forecast. Weather courtesy of forecast.io.

METAR (pilot weather report)

Closest report is Niagara Falls International Airport, 7.5 nm (13.8 km) WNW. Retrieved 2019/06/16 00:32 UTC (7 minutes ago):

KIAG 160032Z 23009KT 10SM -RA BKN009 BKN038 OVC065 16/15 A2985 RMK AO2 P0001 T01610150

TAF (pilot weather forecast)

Forecast is more than 12 hours old.

Closest forecast is Niagara Falls International Airport, 7.5 nm (13.8 km) WNW. Retrieved 2019/06/15 00:36 UTC (1 day ago):

TAF KIAG 152333Z 1600/1624 23014G22KT 6SM -SHRA BR OVC012 FM160100 24008KT 2SM -SHRA BR OVC007 FM160700 02005KT 2SM -RADZ BR OVC005 FM160800 04008KT P6SM OVC007 FM161400 04010G16KT P6SM OVC015 FM162200 04006KT P6SM BKN120